createdAt,value
2022-10-04T00:02:26.235Z,14.52
2022-10-04T00:06:27.785Z,9.85
2022-10-04T00:10:30.775Z,10.30
2022-10-04T00:14:36.590Z,10.05
2022-10-04T00:18:39.298Z,11.05
2022-10-04T00:23:19.573Z,11.25
2022-10-04T00:27:25.851Z,8.10
2022-10-04T00:31:29.318Z,9.10
2022-10-04T00:35:30.828Z,11.52
2022-10-04T00:39:32.731Z,8.23
2022-10-04T00:43:43.939Z,10.23
2022-10-04T00:47:48.422Z,10.98
2022-10-04T00:52:13.535Z,10.07
2022-10-04T00:56:21.073Z,9.45
2022-10-04T01:00:22.802Z,8.80
2022-10-04T01:04:52.375Z,11.23
2022-10-04T01:08:56.503Z,9.43
2022-10-04T01:13:08.007Z,10.18
2022-10-04T01:17:10.041Z,13.73
2022-10-04T01:21:27.146Z,10.32
2022-10-04T01:25:44.869Z,11.45
2022-10-04T01:33:48.128Z,11.38
2022-10-04T01:37:49.667Z,9.25
2022-10-04T01:42:08.699Z,11.50
2022-10-04T01:46:21.869Z,11.35
2022-10-04T01:50:41.818Z,14.10
2022-10-04T01:54:46.675Z,11.07
2022-10-04T01:58:50.233Z,14.75
2022-10-04T02:03:01.587Z,10.95
2022-10-04T02:07:04.752Z,11.07
2022-10-04T02:11:06.909Z,11.35
2022-10-04T02:15:09.103Z,14.15
2022-10-04T02:19:11.042Z,10.88
2022-10-04T02:23:13.228Z,12.02
2022-10-04T02:27:15.220Z,11.18
2022-10-04T02:31:40.745Z,9.57
2022-10-04T02:35:46.783Z,11.68
2022-10-04T02:40:03.647Z,10.25
2022-10-04T02:44:15.750Z,9.60
2022-10-04T02:48:22.447Z,12.05
2022-10-04T02:52:42.604Z,11.65
2022-10-04T02:56:44.763Z,10.73
2022-10-04T03:00:49.561Z,11.55
2022-10-04T03:04:52.326Z,9.10
2022-10-04T03:08:58.215Z,13.50
2022-10-04T03:12:59.667Z,13.23
2022-10-04T03:17:04.005Z,9.75
2022-10-04T03:21:08.243Z,8.20
2022-10-04T03:25:16.317Z,13.23
2022-10-04T03:29:19.779Z,12.18
2022-10-04T03:33:25.730Z,9.93
2022-10-04T03:37:29.748Z,9.55
2022-10-04T03:41:31.210Z,9.82
2022-10-04T03:45:35.254Z,10.60
2022-10-04T03:49:38.029Z,8.45
2022-10-04T03:53:45.606Z,12.38
2022-10-04T03:57:47.163Z,8.88
2022-10-04T04:01:56.977Z,10.60
2022-10-04T04:06:00.383Z,9.55
2022-10-04T04:10:07.145Z,11.07
2022-10-04T04:14:21.362Z,10.23
2022-10-04T04:18:24.575Z,13.20
2022-10-04T04:22:31.711Z,14.52
2022-10-04T04:26:44.924Z,14.40
2022-10-04T04:30:48.567Z,12.60
2022-10-04T04:34:53.456Z,14.40
2022-10-04T04:39:26.093Z,11.27
2022-10-04T04:43:27.790Z,11.23
2022-10-04T04:47:40.735Z,9.82
2022-10-04T04:51:48.139Z,15.05
2022-10-04T04:56:03.750Z,12.07
2022-10-04T05:00:06.667Z,11.10
2022-10-04T05:04:14.349Z,10.82
2022-10-04T05:08:22.944Z,11.18
2022-10-04T05:12:24.453Z,15.88
2022-10-04T05:16:36.936Z,9.05
2022-10-04T05:20:38.954Z,9.90
2022-10-04T05:24:43.664Z,9.77
2022-10-04T05:28:45.091Z,11.93
2022-10-04T05:33:09.561Z,10.07
2022-10-04T05:37:34.814Z,9.93
2022-10-04T05:41:56.971Z,9.85
2022-10-04T05:46:14.536Z,9.98
2022-10-04T05:54:38.125Z,9.27
2022-10-04T05:59:07.363Z,12.77
2022-10-04T06:03:24.210Z,15.63
2022-10-04T06:07:30.700Z,10.23
2022-10-04T06:11:50.966Z,11.77
2022-10-04T06:16:17.640Z,13.05
2022-10-04T06:20:25.550Z,16.33
2022-10-04T06:24:36.044Z,11.32
2022-10-04T06:28:42.458Z,14.38
2022-10-04T06:33:06.787Z,10.75
2022-10-04T06:37:32.623Z,13.05
2022-10-04T06:41:48.360Z,17.17
2022-10-04T06:45:59.903Z,12.15
2022-10-04T06:50:28.946Z,11.43
2022-10-04T06:55:00.743Z,12.48
2022-10-04T06:59:33.433Z,17.17
2022-10-04T07:03:54.647Z,14.70
2022-10-04T07:08:32.729Z,13.15
2022-10-04T07:12:35.314Z,12.63
2022-10-04T07:16:57.681Z,15.85
2022-10-04T07:21:05.472Z,15.40
2022-10-04T07:29:23.562Z,14.85
2022-10-04T07:33:28.068Z,12.38
2022-10-04T07:37:32.451Z,13.10
2022-10-04T07:41:46.567Z,12.27
2022-10-04T07:45:49.090Z,15.73
2022-10-04T07:49:50.845Z,14.73
2022-10-04T07:54:10.613Z,12.23
2022-10-04T07:58:51.891Z,16.23
2022-10-04T08:03:36.413Z,11.38
2022-10-04T08:07:53.083Z,14.07
2022-10-04T08:12:59.624Z,19.80
2022-10-04T08:17:15.376Z,13.03
2022-10-04T08:21:24.071Z,15.40
2022-10-04T08:25:38.091Z,11.82
2022-10-04T08:29:44.348Z,18.75
2022-10-04T08:33:59.978Z,21.55
2022-10-04T08:38:16.973Z,15.60
2022-10-04T08:42:43.207Z,15.40
2022-10-04T08:46:59.324Z,15.60
2022-10-04T08:51:15.846Z,8.48
2022-10-04T08:55:55.142Z,10.85
2022-10-04T09:00:09.791Z,10.10
2022-10-04T09:04:30.291Z,9.10
2022-10-04T09:09:02.928Z,8.77
2022-10-04T09:13:38.731Z,12.35
2022-10-04T09:17:53.724Z,12.25
2022-10-04T09:22:13.490Z,7.82
2022-10-04T09:26:24.737Z,5.85
2022-10-04T09:30:53.823Z,7.35
2022-10-04T09:35:10.615Z,9.02
2022-10-04T09:39:35.825Z,9.63
2022-10-04T09:44:22.875Z,7.18
2022-10-04T09:48:45.968Z,7.22
2022-10-04T09:52:55.537Z,12.30
2022-10-04T09:57:08.866Z,8.45
2022-10-04T10:01:18.632Z,4.35
2022-10-04T10:05:55.699Z,8.35
2022-10-04T10:10:22.856Z,11.57
2022-10-04T10:14:54.616Z,7.18
2022-10-04T10:19:13.060Z,7.82
2022-10-04T10:23:25.027Z,7.40
2022-10-04T10:28:04.651Z,7.93
2022-10-04T10:32:37.422Z,6.50
2022-10-04T10:36:58.544Z,5.63
2022-10-04T10:41:31.456Z,6.70
2022-10-04T10:45:48.248Z,4.53
2022-10-04T10:50:11.498Z,7.93
2022-10-04T10:54:50.674Z,7.30
2022-10-04T10:59:01.913Z,11.32
2022-10-04T11:03:23.212Z,6.18
2022-10-04T11:07:50.865Z,7.93
2022-10-04T11:12:07.287Z,4.28
2022-10-04T11:16:35.635Z,8.68
2022-10-04T11:20:59.398Z,6.20
2022-10-04T11:25:35.203Z,5.75
2022-10-04T11:30:11.575Z,5.20
2022-10-04T11:34:41.475Z,3.65
2022-10-04T11:38:56.706Z,9.65
2022-10-04T11:43:36.039Z,7.28
2022-10-04T11:48:03.038Z,4.93
2022-10-04T11:52:16.415Z,3.58
2022-10-04T11:56:29.944Z,5.05
2022-10-04T12:01:05.728Z,3.55
2022-10-04T12:05:16.238Z,5.25
2022-10-04T12:09:41.912Z,5.30
2022-10-04T12:14:01.677Z,7.45
2022-10-04T12:18:34.490Z,6.38
2022-10-04T12:22:38.896Z,6.68
2022-10-04T12:27:02.806Z,5.05
2022-10-04T12:31:23.106Z,4.60
2022-10-04T12:35:45.642Z,5.75
2022-10-04T12:39:59.586Z,3.85
2022-10-04T12:44:21.924Z,6.50
2022-10-04T12:48:38.976Z,7.47
2022-10-04T12:52:59.231Z,6.28
2022-10-04T12:57:06.533Z,5.10
2022-10-04T13:01:20.428Z,5.47
2022-10-04T13:05:41.984Z,3.85
2022-10-04T13:10:22.635Z,6.32
2022-10-04T13:14:24.065Z,4.82
2022-10-04T13:18:37.273Z,5.05
2022-10-04T13:22:58.058Z,6.40
2022-10-04T13:27:07.613Z,9.48
2022-10-04T13:31:21.820Z,10.77
2022-10-04T13:36:01.303Z,9.05
2022-10-04T13:40:22.822Z,9.05
2022-10-04T13:44:47.452Z,7.15
2022-10-04T13:49:01.344Z,7.30
2022-10-04T13:53:27.652Z,12.40
2022-10-04T13:58:05.497Z,6.78
2022-10-04T14:02:39.455Z,7.35
2022-10-04T14:07:38.294Z,10.40
2022-10-04T14:12:03.229Z,6.25
2022-10-04T14:16:34.071Z,5.57
2022-10-04T14:21:19.158Z,7.07
2022-10-04T14:25:47.162Z,8.68
2022-10-04T14:34:15.432Z,4.57
2022-10-04T14:38:27.135Z,8.43
2022-10-04T14:42:46.092Z,10.43
2022-10-04T14:46:52.798Z,6.70
2022-10-04T14:51:13.015Z,7.90
2022-10-04T14:55:52.164Z,6.93
2022-10-04T14:59:56.628Z,10.77
2022-10-04T15:04:25.622Z,4.72
2022-10-04T15:08:53.484Z,7.20
2022-10-04T15:13:11.896Z,4.28
2022-10-04T15:17:27.789Z,4.60
2022-10-04T15:21:52.382Z,6.88
2022-10-04T15:25:57.314Z,5.85
2022-10-04T15:30:24.374Z,8.18
2022-10-04T15:34:48.810Z,6.63
2022-10-04T15:39:02.370Z,6.97
2022-10-04T15:43:25.009Z,5.05
2022-10-04T15:47:50.214Z,9.95
2022-10-04T15:52:09.879Z,7.90
2022-10-04T15:56:40.384Z,7.78
2022-10-04T16:00:45.395Z,6.15
2022-10-04T16:05:21.484Z,5.05
2022-10-04T16:09:28.565Z,6.97
2022-10-04T16:13:57.392Z,4.75
2022-10-04T16:18:13.828Z,13.90
2022-10-04T16:22:34.785Z,11.52
2022-10-04T16:26:36.456Z,7.85
2022-10-04T16:30:41.623Z,9.70
2022-10-04T16:34:45.177Z,6.75
2022-10-04T16:39:13.478Z,8.23
2022-10-04T16:43:17.992Z,7.00
2022-10-04T16:47:39.596Z,7.05
2022-10-04T16:52:28.556Z,5.75
2022-10-04T16:56:50.968Z,9.73
2022-10-04T17:01:23.369Z,5.28
2022-10-04T17:05:40.132Z,11.45
2022-10-04T17:09:49.875Z,7.27
2022-10-04T17:13:58.082Z,7.13
2022-10-04T17:18:08.577Z,11.48
2022-10-04T17:22:28.974Z,10.35
2022-10-04T17:26:57.709Z,7.60
2022-10-04T17:31:12.170Z,9.52
2022-10-04T17:35:44.365Z,6.80
2022-10-04T17:39:53.570Z,8.02
2022-10-04T17:44:41.015Z,8.45
2022-10-04T17:49:05.535Z,8.77
2022-10-04T17:53:33.223Z,9.88
2022-10-04T18:01:43.008Z,10.30
2022-10-04T18:10:23.754Z,8.10
2022-10-04T18:14:29.028Z,9.25
2022-10-04T18:18:38.388Z,9.85
2022-10-04T18:22:49.072Z,8.20
2022-10-04T18:27:14.609Z,6.53
2022-10-04T18:31:39.611Z,8.30
2022-10-04T18:36:13.906Z,11.10
2022-10-04T18:40:24.666Z,12.35
2022-10-04T18:44:59.294Z,9.23
2022-10-04T18:49:15.453Z,26.05
2022-10-04T18:53:42.341Z,84.32
2022-10-04T18:58:14.171Z,66.47
2022-10-04T19:02:37.208Z,60.72
2022-10-04T19:06:39.382Z,61.90
2022-10-04T19:10:45.252Z,52.33
2022-10-04T19:14:55.511Z,46.53
2022-10-04T19:19:02.690Z,39.22
2022-10-04T19:23:26.178Z,33.58
2022-10-04T19:27:30.548Z,25.35
2022-10-04T19:31:41.514Z,18.15
2022-10-04T19:36:16.176Z,15.20
2022-10-04T19:40:23.542Z,12.15
2022-10-04T19:44:43.225Z,9.93
2022-10-04T19:48:49.991Z,13.05
2022-10-04T19:52:55.821Z,12.27
2022-10-04T19:56:58.042Z,9.50
2022-10-04T20:00:59.651Z,10.15
2022-10-04T20:05:03.084Z,9.50
2022-10-04T20:09:38.194Z,9.98
2022-10-04T20:13:40.375Z,10.23
2022-10-04T20:17:46.076Z,6.93
2022-10-04T20:21:47.611Z,7.72
2022-10-04T20:25:49.587Z,8.70
2022-10-04T20:29:54.244Z,8.93
2022-10-04T20:33:56.055Z,10.18
2022-10-04T20:38:19.894Z,6.25
2022-10-04T20:42:31.793Z,9.38
2022-10-04T20:46:38.303Z,8.98
2022-10-04T20:50:42.325Z,6.10
2022-10-04T20:54:52.912Z,9.00
2022-10-04T20:58:56.190Z,11.02
2022-10-04T21:03:14.479Z,8.30
2022-10-04T21:07:26.548Z,7.10
2022-10-04T21:11:43.394Z,9.68
2022-10-04T21:15:57.115Z,7.67
2022-10-04T21:19:59.000Z,9.40
2022-10-04T21:24:46.739Z,8.88
2022-10-04T21:28:52.555Z,9.38
2022-10-04T21:32:54.189Z,6.35
2022-10-04T21:36:55.872Z,8.80
2022-10-04T21:40:57.992Z,9.88
2022-10-04T21:44:59.783Z,8.52
2022-10-04T21:49:01.407Z,8.13
2022-10-04T21:53:02.784Z,10.20
2022-10-04T21:57:04.419Z,8.85
2022-10-04T22:01:06.124Z,6.72
2022-10-04T22:05:07.965Z,14.85
2022-10-04T22:09:09.779Z,9.77
2022-10-04T22:13:11.211Z,8.20
2022-10-04T22:17:12.666Z,9.38
2022-10-04T22:21:14.291Z,10.10
2022-10-04T22:25:21.545Z,8.90
2022-10-04T22:29:23.140Z,6.90
2022-10-04T22:33:35.483Z,8.20
2022-10-04T22:37:37.268Z,5.63
2022-10-04T22:41:42.711Z,8.52
2022-10-04T22:45:44.441Z,7.32
2022-10-04T22:49:48.283Z,6.00
2022-10-04T22:53:50.027Z,8.10
2022-10-04T22:57:51.466Z,7.47
2022-10-04T23:01:54.273Z,7.57
2022-10-04T23:05:55.840Z,7.68
2022-10-04T23:09:57.298Z,9.20
2022-10-04T23:13:58.684Z,5.68
2022-10-04T23:18:00.148Z,10.57
2022-10-04T23:22:01.805Z,9.07
2022-10-04T23:26:12.952Z,10.02
2022-10-04T23:30:17.256Z,13.20
2022-10-04T23:34:27.263Z,7.55
2022-10-04T23:38:30.819Z,6.88
2022-10-04T23:42:33.579Z,6.75
2022-10-04T23:46:34.975Z,5.78
2022-10-04T23:50:37.920Z,8.27
2022-10-04T23:54:39.330Z,7.68
2022-10-04T23:58:41.783Z,9.20
